Nanticoke — WDC4353 — position and weather

sailwx.info

Track history (hours):
 
Tides and Currents Weather Stations Pressure Air Temp Water Temp Dewpoint Dewpoint Depression Visibility Wind Speed Wind Dir Waves Ship Positions

Nanticoke

Owner: Vane Line Bunkering, Baltimore, MD. More information available from US FCC via Universal Licensing System and Coast Guard Vessel Documentation Center.

Last reported at 2014-Nov-24 20:33 UTC. Time now 2014-Nov-24 21:31 UTC.
Position N 40°39' W 074°09'.

Length 34 m; draft 4.7 m.

Type: Towing. MMSI: 367023480.

Date/timePositionNaut miles runAvg speedWind from/ knotsBaromVisibWave heightAir tempDewpointWater temp
2014-Nov-24 20:33N 40°39' W 074°09'4 3.9
2014-Nov-24 19:33N 40°40' W 074°05'0 0.0
2014-Nov-24 18:33N 40°40' W 074°05'0 0.0
2014-Nov-24 17:33N 40°40' W 074°05'0 0.0
2014-Nov-24 16:33N 40°40' W 074°05'0 0.0
2014-Nov-24 15:33N 40°40' W 074°05'0 0.0
2014-Nov-24 14:33N 40°40' W 074°05'0 0.0
2014-Nov-24 13:33N 40°40' W 074°05'0 0.0
2014-Nov-24 12:11N 40°40' W 074°05'0 0.0
2014-Nov-24 11:34N 40°40' W 074°05'1 1.0
2014-Nov-24 10:34N 40°39' W 074°05'0 0.3
2014-Nov-24 09:34N 40°39' W 074°05'0 0.0
2014-Nov-24 08:33N 40°39' W 074°05'0 0.0
2014-Nov-24 07:34N 40°39' W 074°05'0 0.0
2014-Nov-24 06:34N 40°39' W 074°05'0 0.0
2014-Nov-24 05:34N 40°39' W 074°05'0 0.0
2014-Nov-24 04:34N 40°39' W 074°05'0 0.0
2014-Nov-24 03:34N 40°39' W 074°05'0 0.0
2014-Nov-24 02:34N 40°39' W 074°05'0 0.0
2014-Nov-24 01:34N 40°39' W 074°05'0 0.0
2014-Nov-24 00:34N 40°39' W 074°05'0 0.0
2014-Nov-23 23:34N 40°39' W 074°05'0 0.0
2014-Nov-23 22:34N 40°39' W 074°05'0 0.0
2014-Nov-23 21:34N 40°39' W 074°05'2 1.5
2014-Nov-23 20:33N 40°39' W 074°07'2 2.5
2014-Nov-23 19:33N 40°39' W 074°04'3 3.1
2014-Nov-23 18:34N 40°40' W 074°00'3 3.0
2014-Nov-23 17:34N 40°39' W 074°04'5 4.8
2014-Nov-23 16:34N 40°39' W 074°10'0 0.0
2014-Nov-23 15:34N 40°39' W 074°10'0 0.0
2014-Nov-23 14:33N 40°39' W 074°10'4 3.7
2014-Nov-23 13:34N 40°39' W 074°05'3 2.6
2014-Nov-23 12:33N 40°40' W 074°08'0 0.0
2014-Nov-23 11:34N 40°40' W 074°08'0 0.0
2014-Nov-23 10:33N 40°40' W 074°08'0 0.0
2014-Nov-23 09:34N 40°40' W 074°08'0 0.0
2014-Nov-23 08:33N 40°40' W 074°08'0 0.0
2014-Nov-23 07:34N 40°40' W 074°08'0 0.0
2014-Nov-23 06:33N 40°40' W 074°08'0 0.0
2014-Nov-23 05:33N 40°40' W 074°08'0 0.0
2014-Nov-23 04:34N 40°40' W 074°08'0 0.0
2014-Nov-23 03:33N 40°40' W 074°08'2 1.8
2014-Nov-23 02:34N 40°39' W 074°07'7 6.7
2014-Nov-23 01:34N 40°42' W 073°60'1 1.1
2014-Nov-23 00:34N 40°42' W 073°58'0 0.0
2014-Nov-22 23:34N 40°42' W 073°58'0 0.0
2014-Nov-22 22:34N 40°42' W 073°58'0 0.0
2014-Nov-22 21:34N 40°42' W 073°58'0 0.0
2014-Nov-22 20:34N 40°42' W 073°58'0 0.0
2014-Nov-22 19:34N 40°42' W 073°58'2 2.2
2014-Nov-22 18:34N 40°41' W 074°01'4 3.9
2014-Nov-22 17:33N 40°39' W 074°05'0 0.1
2014-Nov-22 16:34N 40°39' W 074°05'0 0.0
2014-Nov-22 15:34N 40°39' W 074°05'0 0.0
2014-Nov-22 14:34N 40°39' W 074°05'0 0.0
2014-Nov-22 13:34N 40°39' W 074°05'0 0.3
2014-Nov-22 12:34N 40°39' W 074°05'4 3.7
2014-Nov-22 11:34N 40°40' W 074°00'0 0.1
2014-Nov-22 10:34N 40°40' W 074°00'3 2.9
2014-Nov-22 09:34N 40°39' W 074°04'3 2.8
2014-Nov-22 08:34N 40°39' W 074°08'3 3.2
2014-Nov-22 07:29N 40°38' W 074°12'0 0.0
2014-Nov-22 06:23N 40°38' W 074°12'0 0.0
2014-Nov-22 05:28N 40°38' W 074°12'0 0.0
2014-Nov-22 04:27N 40°38' W 074°12'0 0.0
2014-Nov-22 03:33N 40°38' W 074°12'0 0.0
2014-Nov-22 02:27N 40°38' W 074°12'0 0.0
2014-Nov-22 01:33N 40°38' W 074°12'0 0.0
2014-Nov-22 00:22N 40°38' W 074°12'0 0.0
2014-Nov-21 23:28N 40°38' W 074°12'0 0.1
2014-Nov-21 22:33N 40°38' W 074°12'4 3.9
2014-Nov-21 21:33N 40°41' W 074°09'0 0.0
2014-Nov-21 20:33N 40°41' W 074°09'0 0.0
2014-Nov-21 19:33N 40°41' W 074°09'0 0.0
2014-Nov-21 18:34N 40°41' W 074°09'0 0.0
2014-Nov-21 17:34N 40°41' W 074°09'0 0.1
2014-Nov-21 16:33N 40°41' W 074°09'5 4.9
2014-Nov-21 15:34N 40°39' W 074°03'3 2.7
2014-Nov-21 14:34N 40°40' W 074°00'1 0.9
2014-Nov-21 13:33N 40°40' W 074°01'1 0.6
2014-Nov-21 12:34N 40°40' W 074°00'0 0.0
2014-Nov-21 11:34N 40°40' W 074°00'0 0.0
2014-Nov-21 10:34N 40°40' W 074°00'0 0.0
2014-Nov-21 09:34N 40°40' W 074°00'0 0.0
2014-Nov-21 08:33N 40°40' W 074°00'0 0.0
2014-Nov-21 07:34N 40°40' W 074°00'0 0.0
2014-Nov-21 06:34N 40°40' W 074°00'0 0.0
2014-Nov-21 05:34N 40°40' W 074°00'2 2.4
2014-Nov-21 04:34N 40°39' W 074°03'4 4.0
2014-Nov-21 03:33N 40°40' W 074°09'0 0.0
2014-Nov-21 02:33N 40°40' W 074°09'0 0.0
2014-Nov-21 01:34N 40°40' W 074°09'0 0.0
2014-Nov-21 00:34N 40°40' W 074°09'0 0.0
2014-Nov-20 23:33N 40°40' W 074°09'0 0.0
2014-Nov-20 22:33N 40°40' W 074°09'0 0.0
2014-Nov-20 21:33N 40°40' W 074°09'0 0.0
2014-Nov-20 20:34N 40°40' W 074°09'0 0.0
2014-Nov-20 19:34N 40°40' W 074°09'0 0.0
2014-Nov-20 18:34N 40°40' W 074°09'0 0.1
2014-Nov-20 17:34N 40°40' W 074°09'4 4.2
2014-Nov-20 16:34N 40°40' W 074°03'2 2.1
2014-Nov-20 15:33N 40°40' W 074°00'0 0.0
2014-Nov-20 14:34N 40°40' W 074°00'0 0.0
2014-Nov-20 13:34N 40°40' W 074°00'0 0.0
2014-Nov-20 12:34N 40°40' W 074°00'0 0.0
2014-Nov-20 11:34N 40°40' W 074°00'1 0.9
2014-Nov-20 10:34N 40°40' W 074°01'9 8.5
2014-Nov-20 09:33N 40°38' W 074°12'2 2.1
2014-Nov-20 08:33N 40°36' W 074°12'0 0.0
2014-Nov-20 07:28N 40°36' W 074°12'0 0.0
2014-Nov-20 06:32N 40°36' W 074°12'0 0.0
2014-Nov-20 05:32N 40°36' W 074°12'0 0.0
2014-Nov-20 04:32N 40°36' W 074°12'0 0.0
2014-Nov-20 03:33N 40°36' W 074°12'2 1.5
2014-Nov-20 02:25N 40°37' W 074°12'3 3.8
2014-Nov-20 01:33N 40°40' W 074°09'1 1.2
2014-Nov-20 00:33N 40°39' W 074°10'0 0.0
2014-Nov-19 23:33N 40°39' W 074°10'0 0.0
2014-Nov-19 22:34N 40°39' W 074°10'0 0.0
2014-Nov-19 21:34N 40°39' W 074°10'0 0.5
2014-Nov-19 20:33N 40°38' W 074°09'0 0.5
2014-Nov-19 19:33N 40°39' W 074°10'0 0.0
2014-Nov-19 18:33N 40°39' W 074°10'0 0.0
2014-Nov-19 17:34N 40°39' W 074°10'4 3.8
2014-Nov-19 16:34N 40°39' W 074°05'4 3.8
2014-Nov-19 15:34N 40°40' W 074°00'0 0.0
2014-Nov-19 14:34N 40°40' W 074°00'0 0.0
2014-Nov-19 13:34N 40°40' W 074°00'0 0.0
2014-Nov-19 12:34N 40°40' W 074°00'4 4.0
2014-Nov-19 11:34N 40°39' W 074°05'0 0.2
2014-Nov-19 10:34N 40°39' W 074°05'0 0.2
2014-Nov-19 09:34N 40°39' W 074°05'0 0.0
2014-Nov-19 08:34N 40°39' W 074°05'3 2.6
2014-Nov-19 07:34N 40°39' W 074°08'1 1.1
2014-Nov-19 06:33N 40°39' W 074°10'0 0.0
2014-Nov-19 05:17N 40°39' W 074°10'2 3.4
2014-Nov-19 04:33N 40°39' W 074°07'2 2.3
2014-Nov-19 03:34N 40°39' W 074°04'3 3.0
2014-Nov-19 02:34N 40°40' W 074°00'0 0.0
2014-Nov-19 01:34N 40°40' W 074°00'0 0.0
2014-Nov-19 00:33N 40°40' W 074°00'0 0.0
2014-Nov-18 23:34N 40°40' W 074°00'0 0.0
2014-Nov-18 22:33N 40°40' W 074°00'0 0.0
2014-Nov-18 21:34N 40°40' W 074°00'0 0.0
2014-Nov-18 20:33N 40°40' W 074°00'0 0.0
2014-Nov-18 19:33N 40°40' W 074°00'0 0.0
2014-Nov-18 18:33N 40°40' W 074°00'0 0.0
2014-Nov-18 17:33N 40°40' W 074°00'0 0.0
2014-Nov-18 16:33N 40°40' W 074°00'0 0.0
2014-Nov-18 15:33N 40°40' W 074°00'0 0.0
2014-Nov-18 14:34N 40°40' W 074°00'0 0.0
2014-Nov-18 13:33N 40°40' W 074°00'7 6.7
2014-Nov-18 12:33N 40°41' W 074°09'3 2.6
2014-Nov-18 11:34N 40°39' W 074°07'5 5.2
2014-Nov-18 10:33N 40°40' W 074°01'0 0.1
2014-Nov-18 09:34N 40°40' W 074°00'2 2.2
2014-Nov-18 08:33N 40°39' W 074°03'2 2.1
2014-Nov-18 07:33N 40°39' W 074°06'5 5.2
2014-Nov-18 06:33N 40°38' W 074°12'0 0.0
2014-Nov-17 07:33N 40°37' W 074°12'2 2.0
2014-Nov-17 06:33N 40°39' W 074°11'4 4.1
2014-Nov-17 05:33N 40°39' W 074°05'0 0.0
2014-Nov-17 04:33N 40°39' W 074°05'0 0.0
2014-Nov-17 03:33N 40°39' W 074°05'0 0.0
2014-Nov-17 02:33N 40°39' W 074°05'0 0.0
2014-Nov-17 01:33N 40°39' W 074°05'0 0.0
2014-Nov-17 00:33N 40°39' W 074°05'0 0.0
2014-Nov-16 23:34N 40°39' W 074°05'0 0.0
2014-Nov-16 22:33N 40°39' W 074°05'0 0.0
2014-Nov-16 21:33N 40°39' W 074°05'0 0.0
2014-Nov-16 20:33N 40°39' W 074°05'0 0.0
2014-Nov-16 19:33N 40°39' W 074°05'0 0.0
2014-Nov-16 18:33N 40°39' W 074°05'0 0.0
2014-Nov-16 17:33N 40°39' W 074°05'0 0.0
2014-Nov-16 16:34N 40°39' W 074°05'0 0.0
2014-Nov-16 15:34N 40°39' W 074°05'0 0.0
2014-Nov-16 14:33N 40°39' W 074°05'1 1.5
2014-Nov-16 13:33N 40°39' W 074°04'1 1.3
2014-Nov-16 12:33N 40°40' W 074°02'0 0.0
2014-Nov-16 11:33N 40°40' W 074°02'0 0.2
2014-Nov-16 10:33N 40°40' W 074°02'0 0.1
2014-Nov-16 09:33N 40°40' W 074°02'0 0.0
2014-Nov-16 08:33N 40°40' W 074°02'0 0.0
2014-Nov-16 07:33N 40°40' W 074°02'0 0.1
2014-Nov-16 06:33N 40°40' W 074°02'0 0.1
2014-Nov-16 05:33N 40°40' W 074°02'0 0.0
2014-Nov-16 04:33N 40°40' W 074°02'0 0.0
2014-Nov-16 03:33N 40°40' W 074°02'0 0.0
2014-Nov-16 02:33N 40°40' W 074°02'0 0.0
2014-Nov-16 01:33N 40°40' W 074°02'0 0.0
2014-Nov-16 00:33N 40°40' W 074°02'2 2.3
2014-Nov-15 23:33N 40°39' W 074°05'0 0.1
2014-Nov-15 22:34N 40°39' W 074°05'3 3.4
2014-Nov-15 21:33N 40°40' W 074°01'0 0.1
2014-Nov-15 20:33N 40°40' W 074°00'0 0.0
2014-Nov-15 19:33N 40°40' W 074°00'0 0.0
2014-Nov-15 18:33N 40°40' W 074°00'0 0.0
2014-Nov-15 17:33N 40°40' W 074°00'0 0.0
2014-Nov-15 16:33N 40°40' W 074°00'0 0.0
2014-Nov-15 15:34N 40°40' W 074°00'0 0.0
2014-Nov-15 14:33N 40°40' W 074°00'0 0.0
2014-Nov-15 13:33N 40°40' W 074°00'0 0.0
2014-Nov-15 12:33N 40°40' W 074°00'0 0.0
2014-Nov-15 11:33N 40°40' W 074°00'0 0.0
2014-Nov-15 10:33N 40°40' W 074°00'0 0.0
2014-Nov-15 09:33N 40°40' W 074°00'0 0.0
2014-Nov-15 08:33N 40°40' W 074°00'0 0.0
2014-Nov-15 07:33N 40°40' W 074°00'0 0.0
2014-Nov-15 06:33N 40°40' W 074°00'0 0.1
2014-Nov-15 05:33N 40°40' W 074°00'0 0.2
2014-Nov-15 04:33N 40°40' W 074°00'0 0.0
2014-Nov-15 03:33N 40°40' W 074°00'0 0.0
2014-Nov-15 02:33N 40°40' W 074°00'2 2.0
2014-Nov-15 01:33N 40°39' W 074°02'1 0.7
2014-Nov-15 00:33N 40°39' W 074°03'0 0.0
2014-Nov-14 23:33N 40°39' W 074°03'0 0.0
2014-Nov-14 22:33N 40°39' W 074°03'0 0.0
2014-Nov-14 21:33N 40°39' W 074°03'  
Track history (hours):
 
Tides and Currents Weather Stations Pressure Air Temp Water Temp Dewpoint Dewpoint Depression Visibility Wind Speed Wind Dir Waves Ship Positions

Nanticoke

Owner: Vane Line Bunkering, Baltimore, MD. More information available from US FCC via Universal Licensing System and Coast Guard Vessel Documentation Center.

Last reported at 2014-Nov-24 20:33 UTC. Time now 2014-Nov-24 21:31 UTC.
Position N 40°39' W 074°09'.

Length 34 m; draft 4.7 m.

Type: Towing. MMSI: 367023480.

Date/timePositionNaut miles runAvg speedWind from/ knotsBaromVisibWave heightAir tempDewpointWater temp
2014-Nov-24 20:33N 40°39' W 074°09'4 3.9
2014-Nov-24 19:33N 40°40' W 074°05'0 0.0
2014-Nov-24 18:33N 40°40' W 074°05'0 0.0
2014-Nov-24 17:33N 40°40' W 074°05'0 0.0
2014-Nov-24 16:33N 40°40' W 074°05'0 0.0
2014-Nov-24 15:33N 40°40' W 074°05'0 0.0
2014-Nov-24 14:33N 40°40' W 074°05'0 0.0
2014-Nov-24 13:33N 40°40' W 074°05'0 0.0
2014-Nov-24 12:11N 40°40' W 074°05'0 0.0
2014-Nov-24 11:34N 40°40' W 074°05'1 1.0
2014-Nov-24 10:34N 40°39' W 074°05'0 0.3
2014-Nov-24 09:34N 40°39' W 074°05'0 0.0
2014-Nov-24 08:33N 40°39' W 074°05'0 0.0
2014-Nov-24 07:34N 40°39' W 074°05'0 0.0
2014-Nov-24 06:34N 40°39' W 074°05'0 0.0
2014-Nov-24 05:34N 40°39' W 074°05'0 0.0
2014-Nov-24 04:34N 40°39' W 074°05'0 0.0
2014-Nov-24 03:34N 40°39' W 074°05'0 0.0
2014-Nov-24 02:34N 40°39' W 074°05'0 0.0
2014-Nov-24 01:34N 40°39' W 074°05'0 0.0
2014-Nov-24 00:34N 40°39' W 074°05'0 0.0
2014-Nov-23 23:34N 40°39' W 074°05'0 0.0
2014-Nov-23 22:34N 40°39' W 074°05'0 0.0
2014-Nov-23 21:34N 40°39' W 074°05'2 1.5
2014-Nov-23 20:33N 40°39' W 074°07'2 2.5
2014-Nov-23 19:33N 40°39' W 074°04'3 3.1
2014-Nov-23 18:34N 40°40' W 074°00'3 3.0
2014-Nov-23 17:34N 40°39' W 074°04'5 4.8
2014-Nov-23 16:34N 40°39' W 074°10'0 0.0
2014-Nov-23 15:34N 40°39' W 074°10'0 0.0
2014-Nov-23 14:33N 40°39' W 074°10'4 3.7
2014-Nov-23 13:34N 40°39' W 074°05'3 2.6
2014-Nov-23 12:33N 40°40' W 074°08'0 0.0
2014-Nov-23 11:34N 40°40' W 074°08'0 0.0
2014-Nov-23 10:33N 40°40' W 074°08'0 0.0
2014-Nov-23 09:34N 40°40' W 074°08'0 0.0
2014-Nov-23 08:33N 40°40' W 074°08'0 0.0
2014-Nov-23 07:34N 40°40' W 074°08'0 0.0
2014-Nov-23 06:33N 40°40' W 074°08'0 0.0
2014-Nov-23 05:33N 40°40' W 074°08'0 0.0
2014-Nov-23 04:34N 40°40' W 074°08'0 0.0
2014-Nov-23 03:33N 40°40' W 074°08'2 1.8
2014-Nov-23 02:34N 40°39' W 074°07'7 6.7
2014-Nov-23 01:34N 40°42' W 073°60'1 1.1
2014-Nov-23 00:34N 40°42' W 073°58'0 0.0
2014-Nov-22 23:34N 40°42' W 073°58'0 0.0
2014-Nov-22 22:34N 40°42' W 073°58'0 0.0
2014-Nov-22 21:34N 40°42' W 073°58'0 0.0
2014-Nov-22 20:34N 40°42' W 073°58'0 0.0
2014-Nov-22 19:34N 40°42' W 073°58'2 2.2
2014-Nov-22 18:34N 40°41' W 074°01'4 3.9
2014-Nov-22 17:33N 40°39' W 074°05'0 0.1
2014-Nov-22 16:34N 40°39' W 074°05'0 0.0
2014-Nov-22 15:34N 40°39' W 074°05'0 0.0
2014-Nov-22 14:34N 40°39' W 074°05'0 0.0
2014-Nov-22 13:34N 40°39' W 074°05'0 0.3
2014-Nov-22 12:34N 40°39' W 074°05'4 3.7
2014-Nov-22 11:34N 40°40' W 074°00'0 0.1
2014-Nov-22 10:34N 40°40' W 074°00'3 2.9
2014-Nov-22 09:34N 40°39' W 074°04'3 2.8
2014-Nov-22 08:34N 40°39' W 074°08'3 3.2
2014-Nov-22 07:29N 40°38' W 074°12'0 0.0
2014-Nov-22 06:23N 40°38' W 074°12'0 0.0
2014-Nov-22 05:28N 40°38' W 074°12'0 0.0
2014-Nov-22 04:27N 40°38' W 074°12'0 0.0
2014-Nov-22 03:33N 40°38' W 074°12'0 0.0
2014-Nov-22 02:27N 40°38' W 074°12'0 0.0
2014-Nov-22 01:33N 40°38' W 074°12'0 0.0
2014-Nov-22 00:22N 40°38' W 074°12'0 0.0
2014-Nov-21 23:28N 40°38' W 074°12'0 0.1
2014-Nov-21 22:33N 40°38' W 074°12'4 3.9
2014-Nov-21 21:33N 40°41' W 074°09'0 0.0
2014-Nov-21 20:33N 40°41' W 074°09'0 0.0
2014-Nov-21 19:33N 40°41' W 074°09'0 0.0
2014-Nov-21 18:34N 40°41' W 074°09'0 0.0
2014-Nov-21 17:34N 40°41' W 074°09'0 0.1
2014-Nov-21 16:33N 40°41' W 074°09'5 4.9
2014-Nov-21 15:34N 40°39' W 074°03'3 2.7
2014-Nov-21 14:34N 40°40' W 074°00'1 0.9
2014-Nov-21 13:33N 40°40' W 074°01'1 0.6
2014-Nov-21 12:34N 40°40' W 074°00'0 0.0
2014-Nov-21 11:34N 40°40' W 074°00'0 0.0
2014-Nov-21 10:34N 40°40' W 074°00'0 0.0
2014-Nov-21 09:34N 40°40' W 074°00'0 0.0
2014-Nov-21 08:33N 40°40' W 074°00'0 0.0
2014-Nov-21 07:34N 40°40' W 074°00'0 0.0
2014-Nov-21 06:34N 40°40' W 074°00'0 0.0
2014-Nov-21 05:34N 40°40' W 074°00'2 2.4
2014-Nov-21 04:34N 40°39' W 074°03'4 4.0
2014-Nov-21 03:33N 40°40' W 074°09'0 0.0
2014-Nov-21 02:33N 40°40' W 074°09'0 0.0
2014-Nov-21 01:34N 40°40' W 074°09'0 0.0
2014-Nov-21 00:34N 40°40' W 074°09'0 0.0
2014-Nov-20 23:33N 40°40' W 074°09'0 0.0
2014-Nov-20 22:33N 40°40' W 074°09'0 0.0
2014-Nov-20 21:33N 40°40' W 074°09'0 0.0
2014-Nov-20 20:34N 40°40' W 074°09'0 0.0
2014-Nov-20 19:34N 40°40' W 074°09'0 0.0
2014-Nov-20 18:34N 40°40' W 074°09'0 0.1
2014-Nov-20 17:34N 40°40' W 074°09'4 4.2
2014-Nov-20 16:34N 40°40' W 074°03'2 2.1
2014-Nov-20 15:33N 40°40' W 074°00'0 0.0
2014-Nov-20 14:34N 40°40' W 074°00'0 0.0
2014-Nov-20 13:34N 40°40' W 074°00'0 0.0
2014-Nov-20 12:34N 40°40' W 074°00'0 0.0
2014-Nov-20 11:34N 40°40' W 074°00'1 0.9
2014-Nov-20 10:34N 40°40' W 074°01'9 8.5
2014-Nov-20 09:33N 40°38' W 074°12'2 2.1
2014-Nov-20 08:33N 40°36' W 074°12'0 0.0
2014-Nov-20 07:28N 40°36' W 074°12'0 0.0
2014-Nov-20 06:32N 40°36' W 074°12'0 0.0
2014-Nov-20 05:32N 40°36' W 074°12'0 0.0
2014-Nov-20 04:32N 40°36' W 074°12'0 0.0
2014-Nov-20 03:33N 40°36' W 074°12'2 1.5
2014-Nov-20 02:25N 40°37' W 074°12'3 3.8
2014-Nov-20 01:33N 40°40' W 074°09'1 1.2
2014-Nov-20 00:33N 40°39' W 074°10'0 0.0
2014-Nov-19 23:33N 40°39' W 074°10'0 0.0
2014-Nov-19 22:34N 40°39' W 074°10'0 0.0
2014-Nov-19 21:34N 40°39' W 074°10'0 0.5
2014-Nov-19 20:33N 40°38' W 074°09'0 0.5
2014-Nov-19 19:33N 40°39' W 074°10'0 0.0
2014-Nov-19 18:33N 40°39' W 074°10'0 0.0
2014-Nov-19 17:34N 40°39' W 074°10'4 3.8
2014-Nov-19 16:34N 40°39' W 074°05'4 3.8
2014-Nov-19 15:34N 40°40' W 074°00'0 0.0
2014-Nov-19 14:34N 40°40' W 074°00'0 0.0
2014-Nov-19 13:34N 40°40' W 074°00'0 0.0
2014-Nov-19 12:34N 40°40' W 074°00'4 4.0
2014-Nov-19 11:34N 40°39' W 074°05'0 0.2
2014-Nov-19 10:34N 40°39' W 074°05'0 0.2
2014-Nov-19 09:34N 40°39' W 074°05'0 0.0
2014-Nov-19 08:34N 40°39' W 074°05'3 2.6
2014-Nov-19 07:34N 40°39' W 074°08'1 1.1
2014-Nov-19 06:33N 40°39' W 074°10'0 0.0
2014-Nov-19 05:17N 40°39' W 074°10'2 3.4
2014-Nov-19 04:33N 40°39' W 074°07'2 2.3
2014-Nov-19 03:34N 40°39' W 074°04'3 3.0
2014-Nov-19 02:34N 40°40' W 074°00'0 0.0
2014-Nov-19 01:34N 40°40' W 074°00'0 0.0
2014-Nov-19 00:33N 40°40' W 074°00'0 0.0
2014-Nov-18 23:34N 40°40' W 074°00'0 0.0
2014-Nov-18 22:33N 40°40' W 074°00'0 0.0
2014-Nov-18 21:34N 40°40' W 074°00'0 0.0
2014-Nov-18 20:33N 40°40' W 074°00'0 0.0
2014-Nov-18 19:33N 40°40' W 074°00'0 0.0
2014-Nov-18 18:33N 40°40' W 074°00'0 0.0
2014-Nov-18 17:33N 40°40' W 074°00'0 0.0
2014-Nov-18 16:33N 40°40' W 074°00'0 0.0
2014-Nov-18 15:33N 40°40' W 074°00'0 0.0
2014-Nov-18 14:34N 40°40' W 074°00'0 0.0
2014-Nov-18 13:33N 40°40' W 074°00'7 6.7
2014-Nov-18 12:33N 40°41' W 074°09'3 2.6
2014-Nov-18 11:34N 40°39' W 074°07'5 5.2
2014-Nov-18 10:33N 40°40' W 074°01'0 0.1
2014-Nov-18 09:34N 40°40' W 074°00'2 2.2
2014-Nov-18 08:33N 40°39' W 074°03'2 2.1
2014-Nov-18 07:33N 40°39' W 074°06'5 5.2
2014-Nov-18 06:33N 40°38' W 074°12'0 0.0
2014-Nov-17 07:33N 40°37' W 074°12'2 2.0
2014-Nov-17 06:33N 40°39' W 074°11'4 4.1
2014-Nov-17 05:33N 40°39' W 074°05'0 0.0
2014-Nov-17 04:33N 40°39' W 074°05'0 0.0
2014-Nov-17 03:33N 40°39' W 074°05'0 0.0
2014-Nov-17 02:33N 40°39' W 074°05'0 0.0
2014-Nov-17 01:33N 40°39' W 074°05'0 0.0
2014-Nov-17 00:33N 40°39' W 074°05'0 0.0
2014-Nov-16 23:34N 40°39' W 074°05'0 0.0
2014-Nov-16 22:33N 40°39' W 074°05'0 0.0
2014-Nov-16 21:33N 40°39' W 074°05'0 0.0
2014-Nov-16 20:33N 40°39' W 074°05'0 0.0
2014-Nov-16 19:33N 40°39' W 074°05'0 0.0
2014-Nov-16 18:33N 40°39' W 074°05'0 0.0
2014-Nov-16 17:33N 40°39' W 074°05'0 0.0
2014-Nov-16 16:34N 40°39' W 074°05'0 0.0
2014-Nov-16 15:34N 40°39' W 074°05'0 0.0
2014-Nov-16 14:33N 40°39' W 074°05'1 1.5
2014-Nov-16 13:33N 40°39' W 074°04'1 1.3
2014-Nov-16 12:33N 40°40' W 074°02'0 0.0
2014-Nov-16 11:33N 40°40' W 074°02'0 0.2
2014-Nov-16 10:33N 40°40' W 074°02'0 0.1
2014-Nov-16 09:33N 40°40' W 074°02'0 0.0
2014-Nov-16 08:33N 40°40' W 074°02'0 0.0
2014-Nov-16 07:33N 40°40' W 074°02'0 0.1
2014-Nov-16 06:33N 40°40' W 074°02'0 0.1
2014-Nov-16 05:33N 40°40' W 074°02'0 0.0
2014-Nov-16 04:33N 40°40' W 074°02'0 0.0
2014-Nov-16 03:33N 40°40' W 074°02'0 0.0
2014-Nov-16 02:33N 40°40' W 074°02'0 0.0
2014-Nov-16 01:33N 40°40' W 074°02'0 0.0
2014-Nov-16 00:33N 40°40' W 074°02'2 2.3
2014-Nov-15 23:33N 40°39' W 074°05'0 0.1
2014-Nov-15 22:34N 40°39' W 074°05'3 3.4
2014-Nov-15 21:33N 40°40' W 074°01'0 0.1
2014-Nov-15 20:33N 40°40' W 074°00'0 0.0
2014-Nov-15 19:33N 40°40' W 074°00'0 0.0
2014-Nov-15 18:33N 40°40' W 074°00'0 0.0
2014-Nov-15 17:33N 40°40' W 074°00'0 0.0
2014-Nov-15 16:33N 40°40' W 074°00'0 0.0
2014-Nov-15 15:34N 40°40' W 074°00'0 0.0
2014-Nov-15 14:33N 40°40' W 074°00'0 0.0
2014-Nov-15 13:33N 40°40' W 074°00'0 0.0
2014-Nov-15 12:33N 40°40' W 074°00'0 0.0
2014-Nov-15 11:33N 40°40' W 074°00'0 0.0
2014-Nov-15 10:33N 40°40' W 074°00'0 0.0
2014-Nov-15 09:33N 40°40' W 074°00'0 0.0
2014-Nov-15 08:33N 40°40' W 074°00'0 0.0
2014-Nov-15 07:33N 40°40' W 074°00'0 0.0
2014-Nov-15 06:33N 40°40' W 074°00'0 0.1
2014-Nov-15 05:33N 40°40' W 074°00'0 0.2
2014-Nov-15 04:33N 40°40' W 074°00'0 0.0
2014-Nov-15 03:33N 40°40' W 074°00'0 0.0
2014-Nov-15 02:33N 40°40' W 074°00'2 2.0
2014-Nov-15 01:33N 40°39' W 074°02'1 0.7
2014-Nov-15 00:33N 40°39' W 074°03'0 0.0
2014-Nov-14 23:33N 40°39' W 074°03'0 0.0
2014-Nov-14 22:33N 40°39' W 074°03'0 0.0
2014-Nov-14 21:33N 40°39' W 074°03'  

Dump ship's entire track history